createdAt,value
2018-03-14T00:01:08.533Z,4.70
2018-03-14T00:03:37.338Z,4.80
2018-03-14T00:06:06.166Z,4.80
2018-03-14T00:08:34.209Z,4.70
2018-03-14T00:11:03.050Z,4.60
2018-03-14T00:13:31.085Z,4.60
2018-03-14T00:15:59.141Z,4.70
2018-03-14T00:18:27.310Z,4.70
2018-03-14T00:20:55.360Z,4.70
2018-03-14T00:23:24.185Z,4.70
2018-03-14T00:25:52.224Z,4.70
2018-03-14T00:28:20.283Z,4.80
2018-03-14T00:30:48.313Z,4.70
2018-03-14T00:33:17.138Z,4.70
2018-03-14T00:35:45.188Z,4.60
2018-03-14T00:38:13.991Z,4.70
2018-03-14T00:40:42.816Z,4.70
2018-03-14T00:43:10.853Z,4.60
2018-03-14T00:45:38.916Z,4.70
2018-03-14T00:48:06.948Z,4.60
2018-03-14T00:50:35.770Z,4.60
2018-03-14T00:53:03.820Z,4.50
2018-03-14T00:55:31.857Z,4.50
2018-03-14T00:57:59.916Z,4.40
2018-03-14T01:00:28.809Z,4.40
2018-03-14T01:02:57.628Z,4.40
2018-03-14T01:05:25.661Z,4.30
2018-03-14T01:07:54.512Z,4.40
2018-03-14T01:10:22.574Z,4.40
2018-03-14T01:12:51.383Z,4.40
2018-03-14T01:15:20.325Z,4.50
2018-03-14T01:17:48.373Z,4.40
2018-03-14T01:20:17.194Z,4.40
2018-03-14T01:22:45.240Z,4.40
2018-03-14T01:25:13.420Z,4.50
2018-03-14T01:27:41.408Z,4.40
2018-03-14T01:30:09.396Z,4.50
2018-03-14T01:32:38.158Z,4.50
2018-03-14T01:35:06.154Z,4.40
2018-03-14T01:37:34.168Z,4.50
2018-03-14T01:40:02.133Z,4.40
2018-03-14T01:42:30.903Z,4.50
2018-03-14T01:44:58.890Z,4.40
2018-03-14T01:47:26.883Z,4.40
2018-03-14T01:49:54.876Z,4.40
2018-03-14T01:52:24.389Z,4.40
2018-03-14T01:54:52.434Z,4.40
2018-03-14T01:57:20.372Z,4.40
2018-03-14T01:59:49.128Z,4.40
2018-03-14T02:02:17.139Z,4.40
2018-03-14T02:04:45.124Z,4.40
2018-03-14T02:07:13.107Z,4.40
2018-03-14T02:09:41.105Z,4.40
2018-03-14T02:12:09.868Z,4.30
2018-03-14T02:14:37.857Z,4.30
2018-03-14T02:17:05.852Z,4.40
2018-03-14T02:19:33.852Z,4.40
2018-03-14T02:22:02.604Z,4.40
2018-03-14T02:24:30.608Z,4.40
2018-03-14T02:26:58.609Z,4.40
2018-03-14T02:29:26.592Z,4.50
2018-03-14T02:31:55.368Z,4.40
2018-03-14T02:34:23.364Z,4.40
2018-03-14T02:37:01.376Z,4.40
2018-03-14T02:39:30.164Z,4.30
2018-03-14T02:41:58.147Z,4.30
2018-03-14T02:44:26.141Z,4.40
2018-03-14T02:46:54.140Z,4.50
2018-03-14T02:49:22.127Z,4.50
2018-03-14T02:51:50.901Z,4.40
2018-03-14T02:54:18.919Z,4.40
2018-03-14T02:56:46.880Z,4.40
2018-03-14T02:59:14.876Z,4.40
2018-03-14T03:01:43.636Z,4.40
2018-03-14T03:04:11.616Z,4.40
2018-03-14T03:06:39.612Z,4.40
2018-03-14T03:09:07.613Z,4.40
2018-03-14T03:11:35.604Z,4.40
2018-03-14T03:14:03.604Z,4.30
2018-03-14T03:16:32.364Z,4.40
2018-03-14T03:19:00.349Z,4.30
2018-03-14T03:21:28.343Z,4.40
2018-03-14T03:23:56.348Z,4.40
2018-03-14T03:26:25.094Z,4.50
2018-03-14T03:28:53.296Z,4.40
2018-03-14T03:31:21.293Z,4.40
2018-03-14T03:33:49.285Z,4.40
2018-03-14T03:36:17.272Z,4.40
2018-03-14T03:38:46.036Z,4.40
2018-03-14T03:41:14.019Z,4.30
2018-03-14T03:43:42.020Z,4.40
2018-03-14T03:46:10.020Z,4.30
2018-03-14T03:48:38.000Z,4.20
2018-03-14T03:51:06.768Z,4.20
2018-03-14T03:53:34.811Z,4.20
2018-03-14T03:56:02.748Z,4.20
2018-03-14T03:58:30.744Z,4.20
2018-03-14T04:00:58.736Z,4.30
2018-03-14T04:03:27.492Z,4.30
2018-03-14T04:05:55.488Z,4.20
2018-03-14T04:08:23.484Z,4.20
2018-03-14T04:10:51.513Z,4.20
2018-03-14T04:13:19.464Z,4.20
2018-03-14T04:15:48.234Z,4.20
2018-03-14T04:18:16.216Z,4.20
2018-03-14T04:20:44.224Z,4.30
2018-03-14T04:23:12.214Z,4.30
2018-03-14T04:25:40.968Z,4.30
2018-03-14T04:28:08.969Z,4.20
2018-03-14T04:30:36.964Z,4.30
2018-03-14T04:33:04.948Z,4.20
2018-03-14T04:35:33.713Z,4.40
2018-03-14T04:38:01.712Z,4.30
2018-03-14T04:40:29.697Z,4.40
2018-03-14T04:42:57.687Z,4.40
2018-03-14T04:45:25.684Z,4.40
2018-03-14T04:47:53.668Z,4.50
2018-03-14T04:50:21.668Z,4.50
2018-03-14T04:52:50.447Z,4.40
2018-03-14T04:55:18.436Z,4.30
2018-03-14T04:57:47.199Z,4.40
2018-03-14T05:00:15.196Z,4.40
2018-03-14T05:02:43.179Z,4.50
2018-03-14T05:05:11.176Z,4.60
2018-03-14T05:07:39.172Z,4.50
2018-03-14T05:10:07.921Z,4.50
2018-03-14T05:12:35.928Z,4.40
2018-03-14T05:15:03.924Z,4.50
2018-03-14T05:17:31.904Z,4.50
2018-03-14T05:19:59.899Z,4.60
2018-03-14T05:22:28.668Z,4.50
2018-03-14T05:24:56.651Z,4.50
2018-03-14T05:27:24.645Z,4.60
2018-03-14T05:29:52.645Z,4.60
2018-03-14T05:32:20.624Z,4.50
2018-03-14T05:34:49.391Z,4.50
2018-03-14T05:37:17.393Z,4.40
2018-03-14T05:39:45.377Z,4.50
2018-03-14T05:42:13.378Z,4.50
2018-03-14T05:44:42.139Z,4.40
2018-03-14T05:47:10.136Z,4.40
2018-03-14T05:49:38.137Z,4.50
2018-03-14T05:52:06.139Z,4.50
2018-03-14T05:54:34.884Z,4.60
2018-03-14T05:57:02.879Z,4.50
2018-03-14T05:59:30.879Z,4.60
2018-03-14T06:02:00.420Z,4.60
2018-03-14T06:04:30.297Z,4.60
2018-03-14T06:06:58.317Z,4.70
2018-03-14T06:09:26.312Z,4.70
2018-03-14T06:11:55.073Z,4.70
2018-03-14T06:14:23.068Z,4.70
2018-03-14T06:16:51.062Z,4.70
2018-03-14T06:19:19.060Z,4.70
2018-03-14T06:21:47.821Z,4.60
2018-03-14T06:24:15.818Z,4.60
2018-03-14T06:26:43.808Z,4.60
2018-03-14T06:29:11.804Z,4.50
2018-03-14T06:31:40.551Z,4.60
2018-03-14T06:34:08.551Z,4.50
2018-03-14T06:36:36.552Z,4.60
2018-03-14T06:39:04.548Z,4.60
2018-03-14T06:41:33.320Z,4.60
2018-03-14T06:44:01.320Z,4.60
2018-03-14T06:46:29.304Z,4.50
2018-03-14T06:48:57.301Z,4.60
2018-03-14T06:51:26.064Z,4.70
2018-03-14T06:53:54.048Z,4.60
2018-03-14T06:56:22.052Z,4.80
2018-03-14T06:59:01.971Z,4.80
2018-03-14T07:01:41.768Z,4.80
2018-03-14T07:04:21.560Z,4.80
2018-03-14T07:06:49.568Z,6.60
2018-03-14T07:09:17.574Z,4.80
2018-03-14T07:11:45.561Z,4.80
2018-03-14T07:14:13.564Z,4.90
2018-03-14T07:16:41.560Z,4.90
2018-03-14T07:19:10.316Z,5.00
2018-03-14T07:21:38.312Z,4.90
2018-03-14T07:24:06.317Z,4.90
2018-03-14T07:26:34.300Z,4.90
2018-03-14T07:29:03.070Z,5.00
2018-03-14T07:31:31.076Z,5.00
2018-03-14T07:33:59.065Z,5.00
2018-03-14T07:36:27.066Z,4.90
2018-03-14T07:38:55.832Z,4.90
2018-03-14T07:41:23.821Z,4.80
2018-03-14T07:43:51.824Z,4.80
2018-03-14T07:46:20.584Z,5.00
2018-03-14T07:48:48.576Z,4.90
2018-03-14T07:51:16.575Z,5.00
2018-03-14T07:53:45.351Z,5.00
2018-03-14T07:56:13.344Z,4.90
2018-03-14T07:58:41.344Z,5.00
2018-03-14T08:01:10.514Z,4.90
2018-03-14T08:03:40.214Z,4.90
2018-03-14T08:06:08.222Z,4.80
2018-03-14T08:08:36.220Z,4.90
2018-03-14T08:11:04.208Z,4.90
2018-03-14T08:13:33.834Z,4.90
2018-03-14T08:16:01.740Z,4.90
2018-03-14T08:18:30.496Z,5.10
2018-03-14T08:20:58.491Z,5.00
2018-03-14T08:23:26.497Z,5.20
2018-03-14T08:25:55.248Z,5.40
2018-03-14T08:28:23.251Z,5.40
2018-03-14T08:30:51.247Z,5.40
2018-03-14T08:33:19.247Z,5.50
2018-03-14T08:35:48.008Z,5.70
2018-03-14T08:38:16.008Z,5.60
2018-03-14T08:40:44.004Z,5.70
2018-03-14T08:43:12.009Z,5.70
2018-03-14T08:45:40.772Z,5.70
2018-03-14T08:48:08.760Z,5.70
2018-03-14T08:50:37.526Z,5.80
2018-03-14T08:53:05.528Z,5.70
2018-03-14T08:55:33.511Z,5.90
2018-03-14T08:58:01.511Z,5.80
2018-03-14T09:00:29.517Z,5.90
2018-03-14T09:02:58.264Z,6.00
2018-03-14T09:05:26.281Z,5.90
2018-03-14T09:07:54.276Z,6.00
2018-03-14T09:10:23.029Z,6.10
2018-03-14T09:12:51.039Z,6.10
2018-03-14T09:15:19.033Z,6.20
2018-03-14T09:17:47.783Z,6.30
2018-03-14T09:20:15.784Z,6.30
2018-03-14T09:22:43.780Z,6.30
2018-03-14T09:25:11.821Z,6.30
2018-03-14T09:27:39.768Z,6.30
2018-03-14T09:30:08.541Z,6.20
2018-03-14T09:32:36.532Z,6.20
2018-03-14T09:35:04.540Z,6.30
2018-03-14T09:37:33.300Z,6.10
2018-03-14T09:40:01.287Z,6.10
2018-03-14T09:42:29.296Z,6.00
2018-03-14T09:44:58.065Z,6.00
2018-03-14T09:47:26.051Z,5.90
2018-03-14T09:49:54.056Z,6.00
2018-03-14T09:52:22.048Z,6.00
2018-03-14T09:54:50.813Z,6.00
2018-03-14T09:57:18.808Z,6.00
2018-03-14T09:59:46.803Z,6.00
2018-03-14T10:02:14.784Z,6.00
2018-03-14T10:04:42.789Z,6.10
2018-03-14T10:07:11.560Z,6.20
2018-03-14T10:09:39.543Z,6.10
2018-03-14T10:12:08.513Z,6.10
2018-03-14T10:14:36.512Z,6.10
2018-03-14T10:17:04.496Z,6.20
2018-03-14T10:19:32.495Z,6.10
2018-03-14T10:22:00.505Z,6.20
2018-03-14T10:24:29.246Z,6.30
2018-03-14T10:26:57.241Z,6.20
2018-03-14T10:29:25.253Z,6.30
2018-03-14T10:31:53.236Z,6.30
2018-03-14T10:34:22.004Z,6.30
2018-03-14T10:36:50.034Z,6.30
2018-03-14T10:39:17.976Z,6.30
2018-03-14T10:41:45.980Z,6.40
2018-03-14T10:44:13.989Z,6.40
2018-03-14T10:46:41.976Z,6.50
2018-03-14T10:49:09.998Z,6.50
2018-03-14T10:51:37.976Z,6.70
2018-03-14T10:54:05.956Z,6.50
2018-03-14T10:56:33.952Z,6.50
2018-03-14T10:59:01.957Z,6.50
2018-03-14T11:01:35.681Z,6.50
2018-03-14T11:04:04.440Z,6.50
2018-03-14T11:06:32.418Z,6.50
2018-03-14T11:09:00.424Z,6.60
2018-03-14T11:11:28.425Z,6.60
2018-03-14T11:13:56.412Z,6.70
2018-03-14T11:16:25.183Z,6.90
2018-03-14T11:18:53.184Z,6.80
2018-03-14T11:21:21.180Z,6.80
2018-03-14T11:23:49.948Z,6.70
2018-03-14T11:26:17.952Z,6.70
2018-03-14T11:28:45.932Z,6.70
2018-03-14T11:31:13.947Z,6.70
2018-03-14T11:33:41.961Z,6.70
2018-03-14T11:36:09.945Z,6.90
2018-03-14T11:38:37.948Z,7.00
2018-03-14T11:41:05.960Z,7.20
2018-03-14T11:43:34.712Z,7.10
2018-03-14T11:46:02.717Z,7.10
2018-03-14T11:48:30.721Z,7.20
2018-03-14T11:50:59.481Z,7.20
2018-03-14T11:53:27.505Z,7.20
2018-03-14T11:55:55.496Z,7.30
2018-03-14T11:58:24.240Z,7.30
2018-03-14T12:00:52.241Z,7.30
2018-03-14T12:03:20.239Z,7.40
2018-03-14T12:05:48.224Z,7.40
2018-03-14T12:08:16.220Z,7.40
2018-03-14T12:10:44.980Z,7.40
2018-03-14T12:13:12.964Z,7.40
2018-03-14T12:15:40.972Z,7.50
2018-03-14T12:18:08.963Z,7.60
2018-03-14T12:20:37.716Z,7.70
2018-03-14T12:23:05.712Z,7.70
2018-03-14T12:25:33.712Z,7.70
2018-03-14T12:28:01.692Z,7.70
2018-03-14T12:30:29.693Z,7.80
2018-03-14T12:32:58.464Z,7.70
2018-03-14T12:35:26.451Z,7.70
2018-03-14T12:37:54.448Z,7.70
2018-03-14T12:40:22.448Z,7.80
2018-03-14T12:42:51.208Z,8.10
2018-03-14T12:45:19.213Z,8.00
2018-03-14T12:47:47.213Z,8.20
2018-03-14T12:50:15.961Z,8.10
2018-03-14T12:52:43.964Z,8.00
2018-03-14T12:55:11.974Z,8.10
2018-03-14T12:57:39.940Z,8.30
2018-03-14T13:00:07.940Z,8.20
2018-03-14T13:02:36.708Z,8.00
2018-03-14T13:05:04.692Z,7.90
2018-03-14T13:07:32.704Z,7.90
2018-03-14T13:10:01.459Z,8.00
2018-03-14T13:12:29.447Z,7.90
2018-03-14T13:14:57.444Z,8.00
2018-03-14T13:17:25.435Z,7.90
2018-03-14T13:19:53.422Z,8.00
2018-03-14T13:22:21.417Z,8.00
2018-03-14T13:24:49.420Z,7.90
2018-03-14T13:27:17.431Z,7.90
2018-03-14T13:29:45.428Z,8.10
2018-03-14T13:32:13.428Z,8.30
2018-03-14T13:34:41.412Z,8.30
2018-03-14T13:37:09.416Z,8.20
2018-03-14T13:39:38.174Z,8.20
2018-03-14T13:42:06.164Z,8.10
2018-03-14T13:44:34.160Z,8.10
2018-03-14T13:47:02.160Z,8.10
2018-03-14T13:49:30.912Z,8.20
2018-03-14T13:51:58.917Z,8.20
2018-03-14T13:54:26.921Z,8.10
2018-03-14T13:56:54.904Z,8.20
2018-03-14T13:59:22.908Z,8.20
2018-03-14T14:01:50.907Z,8.30
2018-03-14T14:04:18.915Z,8.30
2018-03-14T14:06:46.896Z,8.30
2018-03-14T14:09:14.896Z,8.10
2018-03-14T14:11:43.800Z,8.20
2018-03-14T14:14:11.804Z,8.20
2018-03-14T14:16:40.576Z,8.10
2018-03-14T14:19:08.572Z,8.10
2018-03-14T14:21:36.557Z,8.10
2018-03-14T14:24:04.552Z,8.10
2018-03-14T14:26:33.313Z,8.30
2018-03-14T14:29:01.352Z,8.20
2018-03-14T14:31:30.129Z,8.20
2018-03-14T14:33:58.112Z,8.10
2018-03-14T14:36:26.112Z,8.10
2018-03-14T14:38:54.884Z,8.10
2018-03-14T14:41:24.385Z,8.00
2018-03-14T14:43:53.874Z,8.00
2018-03-14T14:46:21.924Z,8.10
2018-03-14T14:48:50.676Z,8.20
2018-03-14T14:51:18.676Z,8.20
2018-03-14T14:53:46.684Z,8.30
2018-03-14T14:56:14.673Z,8.40
2018-03-14T14:58:43.440Z,8.40
2018-03-14T15:01:11.437Z,8.30
2018-03-14T15:03:39.429Z,8.30
2018-03-14T15:06:07.419Z,8.20
2018-03-14T15:08:35.417Z,8.20
2018-03-14T15:11:04.161Z,8.10
2018-03-14T15:13:32.156Z,8.10
2018-03-14T15:16:00.152Z,8.10
2018-03-14T15:18:28.136Z,8.10
2018-03-14T15:20:57.645Z,7.90
2018-03-14T15:23:25.636Z,8.00
2018-03-14T15:25:53.621Z,8.00
2018-03-14T15:28:21.617Z,8.00
2018-03-14T15:30:50.388Z,8.20
2018-03-14T15:33:18.379Z,8.20
2018-03-14T15:35:46.372Z,8.10
2018-03-14T15:38:15.137Z,8.00
2018-03-14T15:40:43.131Z,8.00
2018-03-14T15:43:11.120Z,8.00
2018-03-14T15:45:39.112Z,8.00
2018-03-14T15:48:07.101Z,7.90
2018-03-14T15:50:35.097Z,7.90
2018-03-14T15:53:03.860Z,8.10
2018-03-14T15:55:31.848Z,8.00
2018-03-14T15:57:59.844Z,8.20
2018-03-14T16:00:27.844Z,8.10
2018-03-14T16:02:56.593Z,8.10
2018-03-14T16:05:24.585Z,8.10
2018-03-14T16:07:52.582Z,8.20
2018-03-14T16:10:20.564Z,8.20
2018-03-14T16:12:48.569Z,8.10
2018-03-14T16:15:17.344Z,8.10
2018-03-14T16:17:45.331Z,8.00
2018-03-14T16:20:13.328Z,7.90
2018-03-14T16:22:42.096Z,7.80
2018-03-14T16:25:10.076Z,7.80
2018-03-14T16:27:38.070Z,7.70
2018-03-14T16:30:06.072Z,7.80
2018-03-14T16:32:34.057Z,7.70
2018-03-14T16:35:02.062Z,7.70
2018-03-14T16:37:30.816Z,7.70
2018-03-14T16:39:58.800Z,7.60
2018-03-14T16:42:27.556Z,7.60
2018-03-14T16:44:55.559Z,7.50
2018-03-14T16:47:23.549Z,7.50
2018-03-14T16:49:51.549Z,7.40
2018-03-14T16:52:19.553Z,7.30
2018-03-14T16:54:47.546Z,7.20
2018-03-14T16:57:16.303Z,7.10
2018-03-14T16:59:44.299Z,7.00
2018-03-14T17:02:12.285Z,7.10
2018-03-14T17:04:40.288Z,7.10
2018-03-14T17:07:09.076Z,7.10
2018-03-14T17:09:37.056Z,7.00
2018-03-14T17:12:05.058Z,7.00
2018-03-14T17:14:33.832Z,6.90
2018-03-14T17:17:01.815Z,6.90
2018-03-14T17:19:29.811Z,6.90
2018-03-14T17:21:57.808Z,6.90
2018-03-14T17:24:26.560Z,6.80
2018-03-14T17:26:54.557Z,6.80
2018-03-14T17:29:22.553Z,6.90
2018-03-14T17:31:50.532Z,6.90
2018-03-14T17:34:18.536Z,6.80
2018-03-14T17:36:47.292Z,7.00
2018-03-14T17:39:15.280Z,6.90
2018-03-14T17:41:43.280Z,6.90
2018-03-14T17:44:11.275Z,6.90
2018-03-14T17:46:40.028Z,6.80
2018-03-14T17:49:08.032Z,6.70
2018-03-14T17:51:38.036Z,6.80
2018-03-14T17:54:06.081Z,6.70
2018-03-14T17:56:34.848Z,6.70
2018-03-14T17:59:02.852Z,6.60
2018-03-14T18:01:30.841Z,6.50
2018-03-14T18:03:59.605Z,6.40
2018-03-14T18:06:27.605Z,6.40
2018-03-14T18:08:55.592Z,6.40
2018-03-14T18:11:23.596Z,6.30
2018-03-14T18:13:52.359Z,6.20
2018-03-14T18:16:20.343Z,6.20
2018-03-14T18:18:48.351Z,6.10
2018-03-14T18:21:16.346Z,6.10
2018-03-14T18:23:45.092Z,6.00
2018-03-14T18:26:13.088Z,6.00
2018-03-14T18:28:41.088Z,6.00
2018-03-14T18:31:10.590Z,5.80
2018-03-14T18:33:38.598Z,5.80
2018-03-14T18:36:06.588Z,5.80
2018-03-14T18:38:35.344Z,5.60
2018-03-14T18:41:03.375Z,5.60
2018-03-14T18:43:31.336Z,5.60
2018-03-14T18:45:59.321Z,5.60
2018-03-14T18:48:27.333Z,5.50
2018-03-14T18:50:56.096Z,5.40
2018-03-14T18:53:24.089Z,5.30
2018-03-14T18:55:52.101Z,5.30
2018-03-14T18:58:20.864Z,5.30
2018-03-14T19:00:48.844Z,5.20
2018-03-14T19:03:16.850Z,5.20
2018-03-14T19:05:45.609Z,5.10
2018-03-14T19:08:13.605Z,5.00
2018-03-14T19:10:41.599Z,5.00
2018-03-14T19:13:09.605Z,5.00
2018-03-14T19:15:38.352Z,4.90
2018-03-14T19:18:06.350Z,4.80
2018-03-14T19:20:34.344Z,4.80
2018-03-14T19:23:02.325Z,4.80
2018-03-14T19:25:30.320Z,4.70
2018-03-14T19:27:58.320Z,4.60
2018-03-14T19:30:27.076Z,4.50
2018-03-14T19:32:55.077Z,4.50
2018-03-14T19:35:24.585Z,4.30
2018-03-14T19:37:52.572Z,4.30
2018-03-14T19:40:20.587Z,4.40
2018-03-14T19:42:49.339Z,4.20
2018-03-14T19:45:17.332Z,4.10
2018-03-14T19:47:45.337Z,4.10
2018-03-14T19:50:14.100Z,4.10
2018-03-14T19:52:42.097Z,4.00
2018-03-14T19:55:10.092Z,4.00
2018-03-14T19:57:38.092Z,3.90
2018-03-14T20:00:06.844Z,3.70
2018-03-14T20:02:34.853Z,3.60
2018-03-14T20:05:02.876Z,3.70
2018-03-14T20:07:30.860Z,3.70
2018-03-14T20:09:58.857Z,3.50
2018-03-14T20:12:26.872Z,3.50
2018-03-14T20:14:54.857Z,3.50
2018-03-14T20:17:22.876Z,3.50
2018-03-14T20:19:50.855Z,3.50
2018-03-14T20:22:19.692Z,3.40
2018-03-14T20:24:48.525Z,3.30
2018-03-14T20:27:17.385Z,3.30
2018-03-14T20:29:45.385Z,3.20
2018-03-14T20:32:13.379Z,3.20
2018-03-14T20:34:41.386Z,3.10
2018-03-14T20:37:09.372Z,3.00
2018-03-14T20:39:37.372Z,3.00
2018-03-14T20:42:06.148Z,2.80
2018-03-14T20:44:34.133Z,2.80
2018-03-14T20:47:02.128Z,2.80
2018-03-14T20:49:30.916Z,2.80
2018-03-14T20:51:58.893Z,2.70
2018-03-14T20:54:26.990Z,2.80
2018-03-14T20:56:55.780Z,2.70
2018-03-14T20:59:23.930Z,2.60
2018-03-14T21:01:51.952Z,2.50
2018-03-14T21:04:19.952Z,2.50
2018-03-14T21:06:48.739Z,2.50
2018-03-14T21:09:16.748Z,2.40
2018-03-14T21:11:45.517Z,2.50
2018-03-14T21:14:13.505Z,2.40
2018-03-14T21:16:41.509Z,2.40
2018-03-14T21:19:10.280Z,2.40
2018-03-14T21:21:39.254Z,2.30
2018-03-14T21:24:07.258Z,2.40
2018-03-14T21:26:35.261Z,2.40
2018-03-14T21:29:04.045Z,2.30
2018-03-14T21:31:32.091Z,2.20
2018-03-14T21:34:00.100Z,2.30
2018-03-14T21:36:28.121Z,2.20
2018-03-14T21:38:56.102Z,2.30
2018-03-14T21:41:24.096Z,2.20
2018-03-14T21:43:52.857Z,2.10
2018-03-14T21:46:20.868Z,2.10
2018-03-14T21:48:49.632Z,2.10
2018-03-14T21:51:17.639Z,2.00
2018-03-14T21:53:45.637Z,2.10
2018-03-14T21:56:14.402Z,2.00
2018-03-14T21:58:42.392Z,2.00
2018-03-14T22:01:10.504Z,2.00
2018-03-14T22:03:39.276Z,1.80
2018-03-14T22:06:07.323Z,1.80
2018-03-14T22:08:36.094Z,1.80
2018-03-14T22:11:04.864Z,1.70
2018-03-14T22:13:33.331Z,1.70
2018-03-14T22:16:01.342Z,1.70
2018-03-14T22:18:29.348Z,1.70
2018-03-14T22:20:58.106Z,1.60
2018-03-14T22:23:26.114Z,1.50
2018-03-14T22:25:54.119Z,1.60
2018-03-14T22:28:22.875Z,1.50
2018-03-14T22:30:50.872Z,1.50
2018-03-14T22:33:18.880Z,1.60
2018-03-14T22:35:47.644Z,1.60
2018-03-14T22:38:15.644Z,1.50
2018-03-14T22:40:43.652Z,1.50
2018-03-14T22:43:12.430Z,1.50
2018-03-14T22:45:40.412Z,1.40
2018-03-14T22:48:08.420Z,1.40
2018-03-14T22:50:37.182Z,1.50
2018-03-14T22:53:05.184Z,1.40
2018-03-14T22:55:33.196Z,1.40
2018-03-14T22:58:01.954Z,1.40
2018-03-14T23:00:29.965Z,1.30
2018-03-14T23:02:58.744Z,1.40
2018-03-14T23:05:26.728Z,1.30
2018-03-14T23:07:54.739Z,1.30
2018-03-14T23:10:23.516Z,1.30
2018-03-14T23:12:51.497Z,1.20
2018-03-14T23:15:19.498Z,1.20
2018-03-14T23:17:48.272Z,1.20
2018-03-14T23:20:16.255Z,1.10
2018-03-14T23:22:44.252Z,1.20
2018-03-14T23:25:12.244Z,1.20
2018-03-14T23:27:41.038Z,1.00
2018-03-14T23:30:08.996Z,0.90
2018-03-14T23:32:37.008Z,1.00
2018-03-14T23:35:05.781Z,1.00
2018-03-14T23:37:33.785Z,0.90
2018-03-14T23:40:01.773Z,1.00
2018-03-14T23:42:30.529Z,1.00
2018-03-14T23:44:58.529Z,1.00
2018-03-14T23:47:26.545Z,1.00
2018-03-14T23:49:55.294Z,0.90
2018-03-14T23:52:23.292Z,0.90
2018-03-14T23:54:51.288Z,0.90
2018-03-14T23:57:19.280Z,0.90
2018-03-14T23:59:47.280Z,0.90
